Time;durP1;ratioP1;P1;durP2;ratioP2;P2;SDS_P1;SDS_P2;PMS_P1;PMS_P2;Temp;Humidity;BMP_temperature;BMP_pressure;BME280_temperature;BME280_humidity;BME280_pressure;Samples;Min_cycle;Max_cycle;Signal;HPM_P1;HPM_P2
2021/01/25 00:02:21;;;;;;;8.43;5.43;;;-0.80;99.90;;;;;;5013240;28;20463;-86
2021/01/25 00:04:47;;;;;;;9.17;5.07;;;-0.40;99.90;;;;;;5011524;28;20454;-87
2021/01/25 00:07:13;;;;;;;8.37;5.60;;;0.10;99.90;;;;;;5012995;28;20476;-87
2021/01/25 00:09:40;;;;;;;9.60;4.90;;;;;;;;;;5011906;28;20519;-85
2021/01/25 00:12:07;;;;;;;5.77;5.13;;;-0.50;99.90;;;;;;5012917;28;20506;-87
2021/01/25 00:14:33;;;;;;;7.67;4.93;;;;;;;;;;5013193;28;20444;-85
2021/01/25 00:17:01;;;;;;;8.47;3.80;;;-0.30;99.90;;;;;;5013126;28;20452;-87
2021/01/25 00:19:27;;;;;;;7.90;4.83;;;-0.60;99.90;;;;;;5012676;28;20452;-86
2021/01/25 00:21:53;;;;;;;10.87;6.00;;;-0.40;99.90;;;;;;5013125;28;20452;-86
2021/01/25 00:24:19;;;;;;;7.97;5.90;;;;;;;;;;5011846;28;20939;-87
2021/01/25 00:26:46;;;;;;;9.63;5.70;;;;;;;;;;5016011;28;20952;-86
2021/01/25 00:29:12;;;;;;;17.47;6.87;;;-0.30;99.90;;;;;;5016702;28;20799;-87
2021/01/25 00:31:39;;;;;;;7.33;4.87;;;;;;;;;;5015398;28;20444;-86
2021/01/25 00:34:06;;;;;;;7.00;5.37;;;-0.20;99.90;;;;;;5016777;28;20452;-86
2021/01/25 00:36:32;;;;;;;11.37;6.40;;;-0.80;99.90;;;;;;5017082;28;20823;-87
2021/01/25 00:38:59;;;;;;;9.30;5.50;;;-0.10;99.90;;;;;;5015738;28;20463;-86
2021/01/25 00:41:25;;;;;;;11.57;6.00;;;-0.50;99.90;;;;;;5016477;28;20486;-87
2021/01/25 00:43:51;;;;;;;20.13;10.87;;;-0.30;99.90;;;;;;5016603;28;20456;-86
2021/01/25 00:46:18;;;;;;;9.77;6.60;;;;;;;;;;5016591;28;20452;-86
2021/01/25 00:48:44;;;;;;;5.90;5.30;;;-0.80;99.90;;;;;;5016595;28;20451;-87
2021/01/25 00:51:11;;;;;;;10.43;6.03;;;-0.30;99.90;;;;;;5016573;28;20470;-87
2021/01/25 00:53:37;;;;;;;9.50;6.47;;;-0.70;99.90;;;;;;5015338;28;20828;-87
2021/01/25 00:56:04;;;;;;;9.20;6.40;;;-0.60;99.90;;;;;;5016540;28;20452;-86
2021/01/25 00:58:31;;;;;;;9.33;6.07;;;;;;;;;;5016378;28;20491;-86
2021/01/25 01:00:57;;;;;;;6.30;5.37;;;-0.40;99.90;;;;;;5016311;28;20455;-86
2021/01/25 01:03:24;;;;;;;9.97;6.10;;;-0.40;99.90;;;;;;5016325;28;20457;-86
2021/01/25 01:05:50;;;;;;;9.40;5.90;;;-0.80;99.90;;;;;;5016101;28;20476;-85
2021/01/25 01:08:17;;;;;;;10.47;6.30;;;-0.60;99.90;;;;;;5015059;28;20460;-87
2021/01/25 01:10:44;;;;;;;11.17;8.10;;;-0.30;99.90;;;;;;5016195;28;20510;-87
2021/01/25 01:13:10;;;;;;;10.80;7.40;;;-0.60;99.90;;;;;;5016024;28;20495;-87
2021/01/25 01:15:36;;;;;;;8.07;5.83;;;-0.70;99.90;;;;;;5016063;28;20455;-87
2021/01/25 01:18:03;;;;;;;7.60;4.77;;;-0.60;99.90;;;;;;5015987;28;20451;-87
2021/01/25 01:20:29;;;;;;;9.23;5.73;;;-0.60;99.90;;;;;;5015633;28;20463;-86
2021/01/25 01:22:56;;;;;;;7.97;5.50;;;;;;;;;;5014744;28;20456;-87
2021/01/25 01:25:23;;;;;;;7.07;5.70;;;-0.60;99.90;;;;;;5015911;28;20475;-85
2021/01/25 01:27:49;;;;;;;9.70;6.50;;;-0.70;99.90;;;;;;5015624;28;20502;-85
2021/01/25 01:30:16;;;;;;;9.23;6.00;;;-0.30;99.90;;;;;;5015794;28;20452;-86
2021/01/25 01:32:42;;;;;;;6.00;4.73;;;;;;;;;;5015765;28;20499;-87
2021/01/25 01:35:09;;;;;;;8.77;5.47;;;-0.60;99.90;;;;;;5015777;28;20861;-85
2021/01/25 01:37:36;;;;;;;8.37;4.70;;;;;;;;;;5013820;28;20448;-86
2021/01/25 01:40:04;;;;;;;10.73;5.93;;;-0.70;99.90;;;;;;5015738;28;20444;-84
2021/01/25 01:42:31;;;;;;;6.07;5.10;;;-0.80;99.90;;;;;;5015615;28;20453;-85
2021/01/25 01:44:58;;;;;;;6.70;5.17;;;;;;;;;;5015515;28;20459;-86
2021/01/25 01:47:24;;;;;;;8.33;5.13;;;-0.70;99.90;;;;;;5015526;28;20448;-87
2021/01/25 01:49:51;;;;;;;7.97;5.20;;;-1.00;99.90;;;;;;5015377;28;21109;-87
2021/01/25 01:52:17;;;;;;;11.60;6.53;;;-0.80;99.90;;;;;;5015264;28;21026;-85
2021/01/25 01:54:44;;;;;;;6.00;5.40;;;-0.80;99.90;;;;;;5011370;28;20452;-86
2021/01/25 01:57:11;;;;;;;8.33;5.63;;;-0.70;99.90;;;;;;5015219;28;20594;-87
2021/01/25 01:59:38;;;;;;;9.30;5.40;;;-0.80;99.90;;;;;;5014907;28;20518;-86
2021/01/25 02:02:05;;;;;;;7.53;5.70;;;;;;;;;;5015244;28;20463;-87
2021/01/25 02:04:32;;;;;;;7.30;4.87;;;-0.80;99.90;;;;;;5015041;28;20452;-87
2021/01/25 02:07:01;;;;;;;7.97;4.93;;;-0.70;99.90;;;;;;5015117;28;20951;-87
2021/01/25 02:09:28;;;;;;;10.40;6.20;;;-0.70;99.90;;;;;;5013594;28;20459;-85
2021/01/25 02:11:55;;;;;;;7.37;6.20;;;-0.50;99.90;;;;;;5014809;28;20947;-87
2021/01/25 02:14:22;;;;;;;7.10;5.57;;;-0.50;99.90;;;;;;5014959;28;20452;-86
2021/01/25 02:16:49;;;;;;;9.63;5.87;;;-0.50;99.90;;;;;;5014814;28;20986;-86
2021/01/25 02:19:27;;;;;;;8.23;5.67;;;-0.50;99.90;;;;;;5015609;28;20456;-86
2021/01/25 02:22:05;;;;;;;9.00;5.30;;;-0.40;99.90;;;;;;5015041;28;20539;-88
2021/01/25 02:24:36;;;;;;;6.80;5.20;;;-0.50;99.90;;;;;;5013444;28;20456;-86
2021/01/25 02:27:21;;;;;;;12.73;6.07;;;-0.50;99.90;;;;;;5014777;28;20498;-86
2021/01/25 02:29:47;;;;;;;6.87;5.67;;;-0.80;99.90;;;;;;5014742;28;20448;-87
2021/01/25 02:32:14;;;;;;;9.43;5.93;;;-0.30;99.90;;;;;;5014566;28;20545;-86
2021/01/25 02:34:41;;;;;;;7.20;5.70;;;-0.50;99.90;;;;;;5014291;28;20448;-85
2021/01/25 02:37:09;;;;;;;8.00;6.27;;;-0.50;99.90;;;;;;5014471;28;20818;-87
2021/01/25 02:39:37;;;;;;;7.90;6.67;;;-0.50;99.90;;;;;;5013385;28;20456;-87
2021/01/25 02:42:05;;;;;;;9.27;6.40;;;-0.20;99.90;;;;;;5014513;28;20944;-86
2021/01/25 02:44:33;;;;;;;9.03;5.83;;;-0.20;99.90;;;;;;5014434;28;20459;-88
2021/01/25 02:47:00;;;;;;;6.70;5.90;;;;;;;;;;5014419;28;20449;-86
2021/01/25 02:49:26;;;;;;;9.43;5.97;;;-0.40;99.90;;;;;;5013236;28;20453;-85
2021/01/25 02:51:52;;;;;;;6.77;4.90;;;-0.20;99.90;;;;;;5014124;28;20936;-86
2021/01/25 02:54:19;;;;;;;7.43;5.33;;;-0.20;99.90;;;;;;5013302;28;20456;-86
2021/01/25 02:56:47;;;;;;;7.03;5.27;;;-0.40;99.90;;;;;;5013991;28;20445;-87
2021/01/25 02:59:15;;;;;;;7.00;3.77;;;-0.30;99.90;;;;;;5014231;28;20452;-83
2021/01/25 03:01:43;;;;;;;8.27;3.77;;;-0.30;99.90;;;;;;5014080;28;20456;-85
2021/01/25 03:04:10;;;;;;;3.77;2.87;;;-0.30;99.90;;;;;;5013857;28;20462;-87
2021/01/25 03:06:36;;;;;;;2.27;2.07;;;-0.60;99.90;;;;;;5014140;28;20455;-87
2021/01/25 03:09:03;;;;;;;3.43;2.10;;;-0.40;99.90;;;;;;5012887;28;20453;-87
2021/01/25 03:11:29;;;;;;;6.37;3.27;;;-0.70;99.90;;;;;;5013980;28;20475;-86
2021/01/25 03:14:05;;;;;;;4.30;2.70;;;-0.60;99.90;;;;;;5013556;28;20500;-84
2021/01/25 03:16:32;;;;;;;4.73;3.30;;;-0.50;99.90;;;;;;5013847;28;20788;-86
2021/01/25 03:18:59;;;;;;;4.10;2.00;;;-0.60;99.90;;;;;;5013896;28;20459;-87
2021/01/25 03:21:25;;;;;;;5.50;1.73;;;;;;;;;;5012386;28;20457;-84
2021/01/25 03:23:52;;;;;;;6.07;2.00;;;-0.70;99.90;;;;;;5012591;28;20472;-87
2021/01/25 03:26:18;;;;;;;0.63;0.63;;;-0.80;99.90;;;;;;5014572;28;20449;-85
2021/01/25 03:28:44;;;;;;;3.40;2.30;;;-0.90;99.90;;;;;;5013725;28;20460;-85
2021/01/25 03:31:11;;;;;;;2.63;2.43;;;-1.40;99.90;;;;;;5013539;28;20496;-86
2021/01/25 03:33:37;;;;;;;4.00;2.37;;;-1.00;99.90;;;;;;5013569;28;20506;-86
2021/01/25 03:36:04;;;;;;;2.10;1.93;;;-1.00;99.90;;;;;;5013546;28;20460;-86
2021/01/25 03:38:31;;;;;;;2.87;2.43;;;-0.90;99.90;;;;;;5013102;28;20449;-86
2021/01/25 03:40:58;;;;;;;5.33;2.93;;;-1.20;99.90;;;;;;5013466;28;20943;-87
2021/01/25 03:43:24;;;;;;;7.10;3.30;;;-1.00;99.90;;;;;;5013425;28;20986;-85
2021/01/25 03:45:50;;;;;;;4.20;3.00;;;-1.10;99.90;;;;;;5013009;28;20448;-86
2021/01/25 03:48:17;;;;;;;6.07;3.17;;;-0.70;99.90;;;;;;5013377;28;20940;-87
2021/01/25 03:50:43;;;;;;;4.33;2.60;;;-1.10;99.90;;;;;;5013407;28;20448;-86
2021/01/25 03:53:11;;;;;;;3.40;2.90;;;-0.60;99.90;;;;;;5012019;28;20523;-84
2021/01/25 03:55:37;;;;;;;4.47;3.20;;;-0.60;99.90;;;;;;5013381;28;20456;-87
2021/01/25 03:58:03;;;;;;;3.53;2.87;;;-1.00;99.90;;;;;;5013215;28;20994;-86
2021/01/25 04:00:30;;;;;;;5.83;3.00;;;-0.60;99.90;;;;;;5012903;28;20451;-85
2021/01/25 04:02:56;;;;;;;3.20;2.40;;;-0.30;99.90;;;;;;5013223;28;20467;-86
2021/01/25 04:05:23;;;;;;;3.27;2.60;;;;;;;;;;5013050;28;20476;-86
2021/01/25 04:07:49;;;;;;;3.77;2.73;;;-0.70;99.90;;;;;;5012068;28;20448;-86
2021/01/25 04:10:16;;;;;;;2.50;2.07;;;-0.90;99.90;;;;;;5013443;28;20463;-84
2021/01/25 04:12:42;;;;;;;4.63;3.43;;;-0.90;99.90;;;;;;5012997;28;20542;-86
2021/01/25 04:15:09;;;;;;;9.63;3.00;;;-0.80;99.90;;;;;;5012988;28;20455;-83
2021/01/25 04:17:36;;;;;;;4.47;3.17;;;;;;;;;;5013114;28;20456;-86
2021/01/25 04:20:03;;;;;;;3.87;3.33;;;-0.60;99.90;;;;;;5013358;28;20978;-85
2021/01/25 04:22:29;;;;;;;6.57;3.87;;;-0.60;99.90;;;;;;5012010;28;20453;-84
2021/01/25 04:24:56;;;;;;;3.63;2.87;;;-0.80;99.90;;;;;;5013095;28;20471;-86
2021/01/25 04:27:23;;;;;;;5.13;3.70;;;-0.90;99.90;;;;;;5012977;28;20456;-86
2021/01/25 04:29:49;;;;;;;4.20;3.50;;;;;;;;;;5012922;28;20511;-86
2021/01/25 04:32:16;;;;;;;5.23;3.20;;;-0.70;99.90;;;;;;5012956;28;20452;-87
2021/01/25 04:34:42;;;;;;;5.27;3.27;;;-0.60;99.90;;;;;;5013017;28;20506;-86
2021/01/25 04:37:08;;;;;;;5.30;3.67;;;-0.40;99.90;;;;;;5012991;28;20455;-86
2021/01/25 04:39:35;;;;;;;4.23;3.20;;;-0.70;99.90;;;;;;5011712;28;20500;-87
2021/01/25 04:42:01;;;;;;;4.20;3.40;;;-0.40;99.90;;;;;;5012803;28;20441;-85
2021/01/25 04:44:29;;;;;;;3.83;3.23;;;-0.50;99.90;;;;;;5012859;28;20452;-86
2021/01/25 04:46:56;;;;;;;5.97;3.70;;;-0.50;99.90;;;;;;5012848;28;20452;-85
2021/01/25 04:49:23;;;;;;;7.47;3.53;;;;;;;;;;5012761;28;20452;-84
2021/01/25 04:51:50;;;;;;;6.03;3.53;;;-0.40;99.90;;;;;;5012921;28;20452;-83
2021/01/25 04:54:22;;;;;;;4.00;3.13;;;-0.50;99.90;;;;;;5011539;28;21002;-84
2021/01/25 04:56:51;;;;;;;3.60;3.27;;;-0.60;99.90;;;;;;5021826;28;20451;-84
2021/01/25 04:59:17;;;;;;;6.73;3.60;;;-0.40;99.90;;;;;;5023025;28;20449;-84
2021/01/25 05:01:45;;;;;;;5.40;3.20;;;-0.40;99.90;;;;;;5021342;28;21022;-85
2021/01/25 05:04:12;;;;;;;7.50;3.20;;;;;;;;;;5021737;28;20545;-83
2021/01/25 05:06:38;;;;;;;8.97;7.97;;;;;;;;;;5022974;28;20450;-85
2021/01/25 05:09:05;;;;;;;38.73;34.63;;;-0.60;99.90;;;;;;5020056;28;20440;-83
2021/01/25 05:11:31;;;;;;;16.50;14.73;;;;;;;;;;5022030;28;20550;-85
2021/01/25 05:14:06;;;;;;;6.17;4.37;;;-0.30;99.90;;;;;;5025950;28;20487;-88
2021/01/25 05:16:33;;;;;;;44.50;29.17;;;-0.40;99.90;;;;;;5022019;28;20455;-82
2021/01/25 05:19:03;;;;;;;12.57;10.10;;;0.40;99.90;;;;;;5015963;28;20456;-83
2021/01/25 05:21:34;;;;;;;9.17;7.60;;;-0.10;99.90;;;;;;5016142;28;20498;-84
2021/01/25 05:24:05;;;;;;;5.13;3.37;;;0.00;99.90;;;;;;5014769;28;20478;-87
2021/01/25 05:26:31;;;;;;;10.60;6.23;;;;;;;;;;5018717;28;20471;-85
2021/01/25 05:28:57;;;;;;;6.30;4.77;;;-0.40;99.90;;;;;;5012658;28;20449;-85
2021/01/25 05:31:25;;;;;;;7.03;5.00;;;-0.20;99.90;;;;;;5013827;28;20464;-82
2021/01/25 05:33:52;;;;;;;7.10;6.40;;;-0.30;99.90;;;;;;5016790;28;20487;-88
2021/01/25 05:36:21;;;;;;;12.90;7.67;;;-0.10;99.90;;;;;;5054762;28;20811;-85
2021/01/25 05:38:48;;;;;;;8.53;6.30;;;-0.20;99.90;;;;;;5053386;28;20453;-86
2021/01/25 05:41:16;;;;;;;8.80;5.80;;;-0.30;99.90;;;;;;5054080;28;20493;-88
2021/01/25 05:43:43;;;;;;;6.00;5.10;;;-0.30;99.90;;;;;;5054717;28;21146;-86
2021/01/25 05:46:11;;;;;;;13.07;8.30;;;-0.20;99.90;;;;;;5054604;28;20455;-86
2021/01/25 05:48:38;;;;;;;9.40;6.67;;;-0.20;99.90;;;;;;5054957;28;20449;-86
2021/01/25 05:51:17;;;;;;;11.27;7.53;;;0.50;99.90;;;;;;5054758;28;20848;-85
2021/01/25 05:53:46;;;;;;;4.47;3.73;;;-0.20;99.90;;;;;;5053558;28;20556;-84
2021/01/25 05:56:15;;;;;;;11.80;4.73;;;-0.40;99.90;;;;;;5054810;28;20812;-83
2021/01/25 05:58:42;;;;;;;6.20;4.03;;;-0.40;99.90;;;;;;5054494;28;20501;-82
2021/01/25 06:01:09;;;;;;;5.80;4.27;;;-0.20;99.90;;;;;;5054089;28;20450;-83
2021/01/25 06:03:37;;;;;;;4.90;4.17;;;;;;;;;;5023251;28;20522;-82
2021/01/25 06:06:07;;;;;;;13.70;6.77;;;-0.20;99.90;;;;;;5024396;28;20894;-82
2021/01/25 06:08:43;;;;;;;6.20;4.17;;;-0.40;99.90;;;;;;5024491;28;20462;-81
2021/01/25 06:11:17;;;;;;;4.60;3.70;;;-0.40;99.90;;;;;;5025076;28;20448;-82
2021/01/25 06:13:54;;;;;;;6.53;4.30;;;-0.50;99.90;;;;;;5019987;28;20499;-81
2021/01/25 06:16:23;;;;;;;4.03;3.63;;;-0.40;99.90;;;;;;5019908;28;20444;-90
2021/01/25 06:18:50;;;;;;;8.03;4.33;;;-0.70;99.90;;;;;;5014604;28;20452;-82
2021/01/25 06:21:21;;;;;;;7.73;3.93;;;-0.60;99.90;;;;;;5014670;28;20449;-82
2021/01/25 06:23:48;;;;;;;5.57;3.67;;;-0.50;99.90;;;;;;5012534;28;20786;-83
2021/01/25 06:26:16;;;;;;;11.47;3.90;;;-0.60;99.90;;;;;;5014410;28;20448;-84
2021/01/25 06:28:43;;;;;;;6.80;4.00;;;-0.80;99.90;;;;;;5014350;28;20460;-84
2021/01/25 06:31:09;;;;;;;7.70;4.30;;;-0.90;99.90;;;;;;5014394;28;20449;-84
2021/01/25 06:33:38;;;;;;;6.10;4.30;;;-0.70;99.90;;;;;;5013933;28;20520;-83
2021/01/25 06:36:08;;;;;;;7.67;4.70;;;-0.80;99.90;;;;;;5014117;28;20948;-84
2021/01/25 06:38:36;;;;;;;4.10;3.70;;;-0.60;99.90;;;;;;5012960;28;20501;-84
2021/01/25 06:41:09;;;;;;;8.60;4.30;;;-0.70;99.90;;;;;;5014022;28;20449;-84
2021/01/25 06:43:37;;;;;;;5.80;4.13;;;-1.10;99.90;;;;;;5013766;28;20478;-84
2021/01/25 06:46:04;;;;;;;5.40;3.60;;;-0.80;99.90;;;;;;5013894;28;20457;-84
2021/01/25 06:48:31;;;;;;;7.17;4.50;;;-0.70;99.90;;;;;;5011816;28;20506;-83
2021/01/25 06:51:00;;;;;;;5.17;4.23;;;-0.50;99.90;;;;;;5013799;28;20461;-84
2021/01/25 06:53:28;;;;;;;7.30;4.60;;;-0.50;99.90;;;;;;5012577;28;20503;-84
2021/01/25 06:55:58;;;;;;;8.03;5.07;;;-0.50;99.90;;;;;;5013994;28;20456;-85
2021/01/25 06:58:28;;;;;;;7.80;4.53;;;-0.30;99.90;;;;;;5014320;28;20559;-83
2021/01/25 07:00:55;;;;;;;12.10;4.90;;;-0.50;99.90;;;;;;5013697;28;20948;-84
2021/01/25 07:03:22;;;;;;;11.23;5.50;;;;;;;;;;5013610;28;20469;-88
2021/01/25 07:05:50;;;;;;;9.33;4.53;;;-0.40;99.90;;;;;;5013853;28;20452;-84
2021/01/25 07:08:18;;;;;;;9.20;4.23;;;-0.50;99.90;;;;;;5012853;28;20455;-85
2021/01/25 07:10:55;;;;;;;6.90;4.60;;;-0.50;99.90;;;;;;5014053;28;20971;-85
2021/01/25 07:13:23;;;;;;;17.20;6.70;;;-0.40;99.90;;;;;;5013898;28;20494;-84
2021/01/25 07:15:51;;;;;;;9.73;5.47;;;-0.20;99.90;;;;;;5013884;28;20936;-84
2021/01/25 07:18:19;;;;;;;8.00;5.10;;;-0.50;99.90;;;;;;5013808;28;20460;-85
2021/01/25 07:20:50;;;;;;;10.10;4.83;;;-0.30;99.90;;;;;;5013805;28;20452;-85
2021/01/25 07:23:19;;;;;;;8.40;4.90;;;-0.50;99.90;;;;;;5012621;28;20448;-84
2021/01/25 07:26:03;;;;;;;8.03;4.50;;;-0.20;99.90;;;;;;5013636;28;20458;-84
2021/01/25 07:28:31;;;;;;;11.77;5.93;;;-0.30;99.90;;;;;;5013565;28;20456;-83
2021/01/25 07:30:59;;;;;;;11.40;5.97;;;-0.10;99.90;;;;;;5014772;28;20545;-84
2021/01/25 07:33:26;;;;;;;14.53;5.40;;;-0.20;99.90;;;;;;5013568;28;20496;-84
2021/01/25 07:35:53;;;;;;;10.83;5.43;;;;;;;;;;5013167;28;20453;-83
2021/01/25 07:38:20;;;;;;;14.53;7.37;;;0.10;99.90;;;;;;5012351;28;20457;-83
2021/01/25 07:40:48;;;;;;;8.20;4.93;;;0.20;99.90;;;;;;5013522;28;20457;-84
2021/01/25 07:43:15;;;;;;;9.87;4.93;;;-0.10;99.90;;;;;;5013175;28;20448;-84
2021/01/25 07:45:42;;;;;;;26.37;8.40;;;-0.10;99.90;;;;;;5013402;28;20467;-83
2021/01/25 07:48:09;;;;;;;6.10;4.90;;;0.20;99.90;;;;;;5012906;28;20451;-82
2021/01/25 07:50:37;;;;;;;9.20;4.90;;;-0.20;99.90;;;;;;5011360;28;20457;-81
2021/01/25 07:53:04;;;;;;;7.40;5.57;;;0.10;99.90;;;;;;5012188;28;20999;-83
2021/01/25 07:55:31;;;;;;;11.20;6.17;;;0.20;99.90;;;;;;5018510;28;20452;-83
2021/01/25 07:58:07;;;;;;;9.03;6.17;;;0.10;99.90;;;;;;5013217;28;20499;-81
2021/01/25 08:00:33;;;;;;;5.23;4.63;;;0.30;99.90;;;;;;5011296;28;20448;-82
2021/01/25 08:03:04;;;;;;;11.30;4.77;;;-0.10;99.90;;;;;;5013187;28;20515;-83
2021/01/25 08:05:31;;;;;;;7.23;5.00;;;0.20;99.90;;;;;;5013041;28;20452;-81
2021/01/25 08:08:02;;;;;;;12.13;5.00;;;0.10;99.90;;;;;;5011759;28;20452;-83
2021/01/25 08:10:30;;;;;;;7.47;4.73;;;0.10;99.90;;;;;;5012677;28;20452;-82
2021/01/25 08:12:57;;;;;;;9.07;4.40;;;0.10;99.90;;;;;;5012981;28;20496;-83
2021/01/25 08:15:29;;;;;;;5.93;5.20;;;0.30;99.90;;;;;;5012969;28;20459;-82
2021/01/25 08:17:58;;;;;;;7.57;4.83;;;0.40;99.90;;;;;;5013104;28;20487;-83
2021/01/25 08:20:27;;;;;;;5.67;4.33;;;0.40;99.90;;;;;;5023948;28;20935;-83
2021/01/25 08:22:58;;;;;;;6.50;4.10;;;-0.30;99.90;;;;;;5031601;28;20532;-82
2021/01/25 08:25:27;;;;;;;7.97;4.80;;;0.30;99.90;;;;;;5032602;28;20458;-83
2021/01/25 08:27:58;;;;;;;6.50;5.00;;;0.30;99.90;;;;;;5032706;28;20470;-83
2021/01/25 08:30:32;;;;;;;8.60;4.80;;;0.60;99.90;;;;;;5032634;28;21082;-82
2021/01/25 08:33:01;;;;;;;6.80;4.47;;;0.30;99.90;;;;;;5032548;28;20568;-82
2021/01/25 08:35:32;;;;;;;8.50;6.07;;;0.70;99.90;;;;;;5032567;28;20478;-82
2021/01/25 08:38:21;;;;;;;5.53;4.30;;;0.80;99.90;;;;;;5031192;28;20459;-82
2021/01/25 08:40:48;;;;;;;4.57;3.90;;;0.90;99.90;;;;;;5032555;28;20456;-82
2021/01/25 08:43:23;;;;;;;8.57;4.17;;;0.70;99.90;;;;;;5032409;28;20452;-82
2021/01/25 08:45:51;;;;;;;5.73;3.47;;;0.80;99.90;;;;;;5032600;28;20790;-81
2021/01/25 08:48:30;;;;;;;10.37;4.17;;;0.70;99.90;;;;;;5034691;28;20467;-87
2021/01/25 08:51:09;;;;;;;5.00;3.20;;;0.80;99.90;;;;;;5036291;28;20450;-84
2021/01/25 08:53:36;;;;;;;3.87;3.07;;;1.00;99.90;;;;;;5035105;28;20486;-83
2021/01/25 08:56:12;;;;;;;9.70;4.80;;;0.70;99.90;;;;;;5028092;28;20807;-82
2021/01/25 08:58:39;;;;;;;4.30;3.10;;;;;;;;;;5016273;28;20475;-83
2021/01/25 09:01:18;;;;;;;3.23;2.80;;;1.70;99.90;;;;;;5017003;28;20503;-83
2021/01/25 09:03:44;;;;;;;9.67;5.83;;;1.20;99.90;;;;;;5016297;28;20475;-82
2021/01/25 09:06:11;;;;;;;2.70;2.30;;;0.90;99.90;;;;;;5016187;28;20456;-82
2021/01/25 09:08:38;;;;;;;13.27;6.17;;;1.20;99.90;;;;;;5015177;28;20451;-84
2021/01/25 09:11:05;;;;;;;12.13;6.00;;;1.10;99.90;;;;;;5016151;28;20526;-83
2021/01/25 09:13:32;;;;;;;9.40;6.17;;;;;;;;;;5016006;28;20488;-83
2021/01/25 09:15:59;;;;;;;5.50;4.50;;;1.50;99.90;;;;;;5015683;28;20449;-83
2021/01/25 09:18:26;;;;;;;3.73;3.33;;;1.20;99.90;;;;;;5016010;28;20456;-81
2021/01/25 09:20:52;;;;;;;2.53;2.20;;;0.90;99.90;;;;;;5016081;28;20944;-82
2021/01/25 09:23:18;;;;;;;7.70;3.00;;;1.00;99.90;;;;;;5014602;28;20456;-82
2021/01/25 09:25:45;;;;;;;3.57;2.47;;;1.30;99.90;;;;;;5024760;28;20451;-84
2021/01/25 09:28:11;;;;;;;2.70;2.47;;;1.90;99.90;;;;;;5035161;28;20447;-81
2021/01/25 09:30:38;;;;;;;4.13;2.97;;;;;;;;;;5028605;28;20447;-82
2021/01/25 09:33:04;;;;;;;2.90;2.60;;;1.50;99.90;;;;;;5035260;28;20491;-81
2021/01/25 09:35:31;;;;;;;2.97;2.57;;;1.40;99.90;;;;;;5035477;28;20872;-82
2021/01/25 09:37:59;;;;;;;4.50;2.67;;;;;;;;;;5034316;28;20477;-82
2021/01/25 09:40:25;;;;;;;4.83;3.00;;;1.20;99.90;;;;;;5035230;28;20782;-82
2021/01/25 09:42:52;;;;;;;4.77;3.37;;;1.70;99.90;;;;;;5035671;28;20459;-83
2021/01/25 09:45:19;;;;;;;5.93;4.10;;;2.10;99.90;;;;;;5035456;28;20856;-83
2021/01/25 09:47:46;;;;;;;4.00;3.00;;;1.90;99.90;;;;;;5034992;28;20459;-84
2021/01/25 09:50:14;;;;;;;4.20;2.30;;;1.90;99.90;;;;;;5034950;28;20443;-84
2021/01/25 09:52:42;;;;;;;6.57;3.00;;;2.00;99.90;;;;;;5033963;28;20542;-82
2021/01/25 09:55:10;;;;;;;2.10;1.50;;;2.40;99.90;;;;;;5034712;28;20863;-84
2021/01/25 09:57:36;;;;;;;4.03;2.83;;;;;;;;;;5034979;28;20537;-83
2021/01/25 10:00:03;;;;;;;5.80;2.80;;;2.00;99.90;;;;;;5034593;28;20451;-83
2021/01/25 10:02:29;;;;;;;6.87;4.13;;;1.90;99.90;;;;;;5035073;28;20534;-83
2021/01/25 10:04:55;;;;;;;5.10;4.60;;;2.10;99.90;;;;;;5034956;28;20958;-84
2021/01/25 10:07:22;;;;;;;7.70;3.43;;;;;;;;;;5034865;28;20466;-83
2021/01/25 10:09:54;;;;;;;8.30;3.67;;;2.10;99.90;;;;;;5034132;28;20498;-84
2021/01/25 10:12:20;;;;;;;4.43;3.00;;;2.50;99.90;;;;;;5034818;28;20998;-84
2021/01/25 10:14:46;;;;;;;3.93;2.33;;;2.80;99.90;;;;;;5034732;28;21023;-83
2021/01/25 10:17:13;;;;;;;6.40;2.60;;;2.60;99.90;;;;;;5034397;28;20868;-83
2021/01/25 10:19:39;;;;;;;6.00;2.97;;;2.90;99.90;;;;;;5033365;28;20452;-82
2021/01/25 10:22:05;;;;;;;4.50;2.60;;;2.70;99.90;;;;;;5034710;28;20882;-83
2021/01/25 10:24:31;;;;;;;2.77;2.57;;;2.90;99.90;;;;;;5033319;28;20940;-85
2021/01/25 10:26:58;;;;;;;6.97;3.40;;;2.90;99.90;;;;;;5034662;28;20443;-85
2021/01/25 10:29:24;;;;;;;5.47;2.80;;;2.70;99.90;;;;;;5034912;28;20454;-83
2021/01/25 10:31:51;;;;;;;7.07;2.67;;;2.80;99.90;;;;;;5034491;28;20451;-86
2021/01/25 10:34:17;;;;;;;6.30;3.30;;;2.60;99.90;;;;;;5034491;28;20560;-84
2021/01/25 10:36:43;;;;;;;2.00;1.57;;;;;;;;;;5034358;28;20459;-86
2021/01/25 10:39:09;;;;;;;7.87;4.07;;;2.10;99.90;;;;;;5033295;28;20448;-83
2021/01/25 10:41:36;;;;;;;4.10;2.67;;;2.60;99.90;;;;;;5034361;28;20509;-86
2021/01/25 10:44:03;;;;;;;2.80;2.50;;;2.30;99.90;;;;;;5034237;28;20458;-87
2021/01/25 10:46:29;;;;;;;2.60;2.40;;;2.00;99.90;;;;;;5034607;28;20447;-83
2021/01/25 10:48:55;;;;;;;5.20;3.70;;;2.50;99.90;;;;;;5034209;28;20451;-85
2021/01/25 10:51:21;;;;;;;6.13;4.70;;;2.80;99.90;;;;;;5034092;28;20958;-83
2021/01/25 10:53:48;;;;;;;8.53;3.40;;;2.70;99.90;;;;;;5033263;28;20522;-85
2021/01/25 10:56:14;;;;;;;3.10;2.30;;;2.80;99.90;;;;;;5034016;28;20452;-85
2021/01/25 10:58:40;;;;;;;2.27;1.83;;;2.80;99.90;;;;;;5034075;28;20483;-85
2021/01/25 11:01:07;;;;;;;3.30;2.87;;;2.40;99.90;;;;;;5033889;28;21004;-84
2021/01/25 11:03:36;;;;;;;3.63;3.00;;;2.60;99.90;;;;;;5033932;28;20469;-82
2021/01/25 11:06:03;;;;;;;4.73;2.40;;;2.80;99.90;;;;;;5033930;28;20459;-85
2021/01/25 11:08:29;;;;;;;5.33;2.40;;;2.50;99.90;;;;;;5032530;28;20467;-83
2021/01/25 11:10:56;;;;;;;3.43;2.80;;;2.60;99.90;;;;;;5032872;28;20456;-85
2021/01/25 11:13:22;;;;;;;2.63;2.37;;;2.80;99.90;;;;;;5027888;28;20573;-83
2021/01/25 11:15:48;;;;;;;3.93;2.03;;;2.60;99.90;;;;;;5030609;28;20482;-82
2021/01/25 11:18:15;;;;;;;2.50;2.27;;;2.70;99.90;;;;;;5033071;28;20538;-84
2021/01/25 11:20:42;;;;;;;3.50;2.00;;;2.50;99.90;;;;;;5032817;28;20447;-82
2021/01/25 11:23:08;;;;;;;3.73;1.90;;;3.00;99.90;;;;;;5031976;28;20451;-83
2021/01/25 11:25:35;;;;;;;4.03;1.97;;;;;;;;;;5032983;28;20856;-83
2021/01/25 11:28:01;;;;;;;2.47;2.27;;;2.80;99.90;;;;;;5032924;28;20959;-82
2021/01/25 11:30:27;;;;;;;3.70;2.40;;;2.90;99.90;;;;;;5032973;28;20501;-82
2021/01/25 11:32:53;;;;;;;3.23;2.63;;;3.00;99.90;;;;;;5033559;28;20444;-84
2021/01/25 11:35:21;;;;;;;1.33;1.23;;;2.80;99.90;;;;;;5033480;28;20644;-82
2021/01/25 11:37:47;;;;;;;4.63;1.87;;;3.00;99.90;;;;;;5032090;28;20452;-83
2021/01/25 11:40:14;;;;;;;2.90;2.10;;;3.00;99.90;;;;;;5032895;28;20451;-83
2021/01/25 11:42:40;;;;;;;2.60;2.10;;;3.30;99.90;;;;;;5032854;28;20452;-83
2021/01/25 11:45:07;;;;;;;4.07;1.90;;;3.20;99.90;;;;;;5032804;28;20497;-81
2021/01/25 11:47:33;;;;;;;3.80;2.30;;;3.20;99.90;;;;;;5033423;28;20471;-82
2021/01/25 11:49:59;;;;;;;3.10;2.23;;;3.40;99.90;;;;;;5032575;28;20972;-83
2021/01/25 11:52:26;;;;;;;2.27;2.00;;;2.90;99.90;;;;;;5032113;28;20460;-81
2021/01/25 11:54:53;;;;;;;2.53;1.93;;;2.90;99.90;;;;;;5032080;28;20502;-83
2021/01/25 11:57:19;;;;;;;1.60;1.50;;;;;;;;;;5032492;28;20471;-83
2021/01/25 11:59:46;;;;;;;3.63;1.90;;;3.00;99.90;;;;;;5032764;28;20456;-83
2021/01/25 12:02:12;;;;;;;1.50;1.10;;;2.60;99.90;;;;;;5032455;28;20475;-81
2021/01/25 12:04:39;;;;;;;1.90;1.80;;;;;;;;;;5032553;28;20451;-82
2021/01/25 12:07:05;;;;;;;1.40;1.00;;;2.80;99.90;;;;;;5032776;28;20459;-82
2021/01/25 12:09:32;;;;;;;2.40;2.00;;;2.50;99.90;;;;;;5031369;28;20458;-84
2021/01/25 12:11:58;;;;;;;1.90;1.60;;;2.70;99.90;;;;;;5032498;28;20455;-83
2021/01/25 12:14:25;;;;;;;2.27;1.50;;;2.60;99.90;;;;;;5032742;28;20502;-81
2021/01/25 12:16:51;;;;;;;1.80;1.70;;;;;;;;;;5032715;28;20455;-85
2021/01/25 12:19:17;;;;;;;2.13;1.70;;;2.60;99.90;;;;;;5032846;28;20447;-82
2021/01/25 12:21:44;;;;;;;5.33;1.50;;;2.70;99.90;;;;;;5034033;28;20451;-83
2021/01/25 12:24:11;;;;;;;2.40;1.70;;;2.30;99.90;;;;;;5035736;28;20451;-83
2021/01/25 12:26:38;;;;;;;2.40;1.50;;;2.40;99.90;;;;;;5036953;28;20484;-83
2021/01/25 12:29:04;;;;;;;4.70;2.00;;;2.00;99.90;;;;;;5036875;28;20816;-84
2021/01/25 12:31:31;;;;;;;1.40;1.23;;;2.40;99.90;;;;;;5036553;28;20458;-82
2021/01/25 12:33:57;;;;;;;2.80;1.70;;;2.50;99.90;;;;;;5036577;28;20491;-86
2021/01/25 12:36:23;;;;;;;1.40;1.30;;;2.60;99.90;;;;;;5036750;28;20455;-86
2021/01/25 12:38:50;;;;;;;4.17;2.37;;;;;;;;;;5035210;28;20467;-83
2021/01/25 12:41:16;;;;;;;2.40;1.67;;;2.50;99.90;;;;;;5036275;28;20466;-82
2021/01/25 12:43:44;;;;;;;3.37;1.70;;;2.30;99.90;;;;;;5036447;28;20867;-83
2021/01/25 12:46:10;;;;;;;1.90;1.60;;;2.20;99.90;;;;;;5036264;28;20455;-83
2021/01/25 12:48:37;;;;;;;2.10;1.40;;;2.20;99.90;;;;;;5036588;28;20447;-81
2021/01/25 12:51:03;;;;;;;0.50;0.50;;;;;;;;;;5036174;28;21024;-87
2021/01/25 12:53:30;;;;;;;0.70;0.50;;;;;;;;;;5035214;28;20498;-84
2021/01/25 12:55:56;;;;;;;2.17;1.43;;;2.60;99.90;;;;;;5036247;28;20447;-85
2021/01/25 12:58:22;;;;;;;3.20;1.83;;;2.20;99.90;;;;;;5035495;28;20486;-83
2021/01/25 13:00:49;;;;;;;2.70;1.67;;;2.70;99.90;;;;;;5035989;28;20452;-84
2021/01/25 13:03:16;;;;;;;1.90;1.20;;;;;;;;;;5036433;28;20455;-82
2021/01/25 13:05:42;;;;;;;1.03;0.90;;;2.40;99.90;;;;;;5036086;28;20508;-83